createdAt,value
2022-12-23T00:00:27.843Z,30.33
2022-12-23T00:02:54.540Z,35.67
2022-12-23T00:05:21.376Z,31.03
2022-12-23T00:07:48.074Z,35.00
2022-12-23T00:10:14.654Z,30.70
2022-12-23T00:12:59.707Z,38.60
2022-12-23T00:15:26.236Z,33.87
2022-12-23T00:17:52.834Z,32.97
2022-12-23T00:20:19.396Z,36.63
2022-12-23T00:23:04.451Z,31.60
2022-12-23T00:25:41.209Z,33.47
2022-12-23T00:28:12.578Z,30.40
2022-12-23T00:30:49.348Z,35.57
2022-12-23T00:33:18.903Z,29.53
2022-12-23T00:35:46.240Z,32.67
2022-12-23T00:38:13.562Z,35.17
2022-12-23T00:40:58.739Z,34.63
2022-12-23T00:43:25.291Z,30.83
2022-12-23T00:45:51.825Z,33.73
2022-12-23T00:48:36.806Z,37.73
2022-12-23T00:51:03.407Z,33.57
2022-12-23T00:53:30.132Z,34.20
2022-12-23T00:55:56.697Z,35.33
2022-12-23T00:58:23.315Z,32.43
2022-12-23T01:01:08.700Z,34.03
2022-12-23T01:03:53.815Z,37.33
2022-12-23T01:06:20.516Z,36.20
2022-12-23T01:08:47.010Z,34.97
2022-12-23T01:11:13.544Z,36.33
2022-12-23T01:13:40.198Z,36.50
2022-12-23T01:16:15.352Z,38.63
2022-12-23T01:18:43.941Z,37.03
2022-12-23T01:21:10.995Z,36.77
2022-12-23T01:23:38.068Z,29.77
2022-12-23T01:26:06.856Z,34.23
2022-12-23T01:28:34.377Z,30.47
2022-12-23T01:31:02.925Z,35.77
2022-12-23T01:33:31.112Z,37.73
2022-12-23T01:36:08.492Z,37.57
2022-12-23T01:38:35.434Z,36.20
2022-12-23T01:41:01.918Z,35.50
2022-12-23T01:43:49.577Z,36.63
2022-12-23T01:46:16.499Z,37.90
2022-12-23T01:48:51.907Z,34.07
2022-12-23T01:51:29.211Z,36.57
2022-12-23T01:54:01.311Z,32.30
2022-12-23T01:56:36.985Z,37.90
2022-12-23T01:59:11.492Z,39.97
2022-12-23T02:01:56.550Z,36.03
2022-12-23T02:04:26.134Z,38.53
2022-12-23T02:07:11.656Z,37.50
2022-12-23T02:09:41.011Z,34.57
2022-12-23T02:12:18.164Z,41.33
2022-12-23T02:15:06.038Z,41.70
2022-12-23T02:18:09.987Z,43.83
2022-12-23T02:21:04.164Z,35.73
2022-12-23T02:23:45.621Z,41.83
2022-12-23T02:26:15.063Z,44.03
2022-12-23T02:29:04.724Z,43.47
2022-12-23T02:32:05.533Z,41.83
2022-12-23T02:35:07.876Z,39.20
2022-12-23T02:37:50.887Z,37.73
2022-12-23T02:40:34.065Z,42.50
2022-12-23T02:43:00.533Z,42.20
2022-12-23T02:45:43.170Z,38.77
2022-12-23T02:48:31.753Z,42.93
2022-12-23T02:51:00.323Z,41.67
2022-12-23T02:53:32.266Z,43.37
2022-12-23T02:56:00.991Z,39.70
2022-12-23T02:58:32.702Z,40.17
2022-12-23T03:01:02.008Z,42.10
2022-12-23T03:03:29.268Z,40.50
2022-12-23T03:05:56.680Z,43.53
2022-12-23T03:08:31.754Z,44.77
2022-12-23T03:11:04.305Z,42.23
2022-12-23T03:13:41.299Z,41.70
2022-12-23T03:16:23.658Z,45.00
2022-12-23T03:19:25.623Z,42.67
2022-12-23T03:22:14.450Z,41.33
2022-12-23T03:24:50.067Z,45.13
2022-12-23T03:27:22.782Z,45.10
2022-12-23T03:29:58.220Z,43.17
2022-12-23T03:32:28.312Z,48.97
2022-12-23T03:34:59.094Z,40.83
2022-12-23T03:37:28.776Z,43.50
2022-12-23T03:40:08.767Z,41.27
2022-12-23T03:42:39.818Z,38.70
2022-12-23T03:45:38.135Z,42.47
2022-12-23T03:48:09.779Z,42.13
2022-12-23T03:50:39.902Z,42.70
2022-12-23T03:53:24.555Z,43.57
2022-12-23T03:56:02.854Z,45.50
2022-12-23T03:58:32.108Z,42.33
2022-12-23T04:01:10.026Z,41.00
2022-12-23T04:03:44.873Z,43.03
2022-12-23T04:06:15.913Z,42.53
2022-12-23T04:08:44.865Z,45.90
2022-12-23T04:11:12.243Z,41.37
2022-12-23T04:13:38.820Z,43.13
2022-12-23T04:16:06.333Z,52.03
2022-12-23T04:18:33.112Z,45.17
2022-12-23T04:20:59.784Z,46.43
2022-12-23T04:23:26.284Z,47.23
2022-12-23T04:25:52.810Z,45.87
2022-12-23T04:28:20.185Z,51.00
2022-12-23T04:30:46.808Z,49.53
2022-12-23T04:33:13.582Z,52.30
2022-12-23T04:35:40.262Z,46.23
2022-12-23T04:38:07.566Z,51.27
2022-12-23T04:40:34.068Z,51.07
2022-12-23T04:43:00.566Z,51.73
2022-12-23T04:45:27.174Z,60.57
2022-12-23T04:47:55.295Z,60.20
2022-12-23T04:50:21.880Z,63.37
2022-12-23T04:52:48.330Z,68.60
2022-12-23T04:55:14.878Z,76.73
2022-12-23T04:57:41.494Z,79.90
2022-12-23T05:00:08.900Z,75.90
2022-12-23T05:02:35.564Z,73.50
2022-12-23T05:05:02.296Z,72.43
2022-12-23T05:07:28.778Z,74.83
2022-12-23T05:09:55.253Z,77.63
2022-12-23T05:12:21.710Z,67.00
2022-12-23T05:14:48.210Z,74.90
2022-12-23T05:17:14.669Z,82.53
2022-12-23T05:19:41.158Z,79.83
2022-12-23T05:22:07.627Z,82.63
2022-12-23T05:24:34.090Z,70.10
2022-12-23T05:27:00.824Z,68.50
2022-12-23T05:29:27.898Z,67.83
2022-12-23T05:31:54.489Z,62.93
2022-12-23T05:34:21.288Z,72.10
2022-12-23T05:36:47.868Z,63.67
2022-12-23T05:39:14.423Z,69.23
2022-12-23T05:41:40.936Z,69.40
2022-12-23T05:44:07.736Z,70.10
2022-12-23T05:46:34.495Z,67.27
2022-12-23T05:49:01.023Z,81.23
2022-12-23T05:51:27.555Z,91.67
2022-12-23T05:53:53.995Z,71.43
2022-12-23T05:56:20.507Z,70.33
2022-12-23T05:58:47.026Z,62.77
2022-12-23T06:01:14.339Z,67.60
2022-12-23T06:03:40.906Z,59.53
2022-12-23T06:06:07.558Z,71.57
2022-12-23T06:08:34.206Z,67.83
2022-12-23T06:11:00.709Z,64.63
2022-12-23T06:13:27.163Z,60.13
2022-12-23T06:15:53.657Z,66.20
2022-12-23T06:18:20.131Z,75.63
2022-12-23T06:20:47.742Z,72.57
2022-12-23T06:23:14.596Z,67.83
2022-12-23T06:25:41.208Z,64.50
2022-12-23T06:28:08.069Z,60.17
2022-12-23T06:30:34.911Z,63.70
2022-12-23T06:33:01.389Z,66.40
2022-12-23T06:35:27.933Z,66.73
2022-12-23T06:37:54.432Z,66.87
2022-12-23T06:40:20.947Z,65.47
2022-12-23T06:42:47.561Z,60.33
2022-12-23T06:45:14.116Z,67.97
2022-12-23T06:47:40.639Z,64.10
2022-12-23T06:50:07.650Z,57.67
2022-12-23T06:52:34.203Z,64.23
2022-12-23T06:55:00.663Z,59.30
2022-12-23T06:57:27.140Z,65.07
2022-12-23T06:59:53.584Z,64.47
2022-12-23T07:02:20.785Z,61.27
2022-12-23T07:04:47.408Z,55.60
2022-12-23T07:07:13.996Z,61.17
2022-12-23T07:09:40.424Z,60.00
2022-12-23T07:12:07.027Z,59.37
2022-12-23T07:14:33.500Z,58.00
2022-12-23T07:16:59.951Z,58.40
2022-12-23T07:19:26.511Z,58.73
2022-12-23T07:21:53.098Z,54.90
2022-12-23T07:24:19.756Z,63.70
2022-12-23T07:26:46.255Z,56.30
2022-12-23T07:29:12.737Z,55.43
2022-12-23T07:31:41.094Z,52.20
2022-12-23T07:34:08.159Z,57.43
2022-12-23T07:36:34.646Z,58.87
2022-12-23T07:39:01.153Z,63.17
2022-12-23T07:41:27.592Z,56.97
2022-12-23T07:43:54.789Z,59.87
2022-12-23T07:46:21.393Z,55.67
2022-12-23T07:48:47.970Z,55.43
2022-12-23T07:51:14.631Z,59.47
2022-12-23T07:53:41.141Z,61.80
2022-12-23T07:56:08.064Z,53.90
2022-12-23T07:58:34.650Z,54.50
2022-12-23T08:01:08.089Z,56.17
2022-12-23T08:03:34.981Z,58.40
2022-12-23T08:06:03.527Z,53.37
2022-12-23T08:08:30.605Z,53.17
2022-12-23T08:11:03.294Z,54.33
2022-12-23T08:13:31.894Z,92.50
2022-12-23T08:16:00.743Z,55.70
2022-12-23T08:18:29.651Z,56.00
2022-12-23T08:21:01.614Z,50.57
2022-12-23T08:23:29.552Z,60.93
2022-12-23T08:25:59.967Z,59.27
2022-12-23T08:28:26.473Z,55.00
2022-12-23T08:30:53.635Z,50.00
2022-12-23T08:33:20.095Z,56.70
2022-12-23T08:35:46.711Z,59.13
2022-12-23T08:38:13.252Z,52.63
2022-12-23T08:40:40.920Z,53.47
2022-12-23T08:43:07.964Z,50.67
2022-12-23T08:45:38.615Z,53.73
2022-12-23T08:48:06.766Z,49.60
2022-12-23T08:50:44.033Z,58.63
2022-12-23T08:53:11.727Z,45.83
2022-12-23T08:55:43.180Z,49.20
2022-12-23T08:58:10.916Z,51.87
2022-12-23T09:00:39.280Z,51.30
2022-12-23T09:03:06.855Z,51.10
2022-12-23T09:05:34.611Z,50.63
2022-12-23T09:08:02.051Z,52.27
2022-12-23T09:10:28.614Z,50.00
2022-12-23T09:12:57.808Z,52.37
2022-12-23T09:15:25.170Z,52.90
2022-12-23T09:17:51.675Z,55.93
2022-12-23T09:20:18.160Z,64.10
2022-12-23T09:22:44.658Z,67.43
2022-12-23T09:25:11.210Z,56.07
2022-12-23T09:27:38.025Z,58.83
2022-12-23T09:30:05.078Z,57.13
2022-12-23T09:32:32.561Z,59.73
2022-12-23T09:34:59.097Z,60.40
2022-12-23T09:37:25.603Z,60.70
2022-12-23T09:39:52.082Z,61.80
2022-12-23T09:42:43.467Z,66.77
2022-12-23T09:45:45.213Z,61.33
2022-12-23T09:48:15.838Z,60.80
2022-12-23T09:50:43.587Z,60.57
2022-12-23T09:53:18.361Z,55.67
2022-12-23T09:55:55.156Z,64.20
2022-12-23T09:58:30.312Z,62.13
2022-12-23T10:01:18.893Z,61.10
2022-12-23T10:04:23.734Z,62.20
2022-12-23T10:07:06.667Z,53.67
2022-12-23T10:09:37.658Z,60.47
2022-12-23T10:12:39.811Z,55.27
2022-12-23T10:15:19.141Z,64.67
2022-12-23T10:17:46.931Z,57.27
2022-12-23T10:20:19.553Z,56.37
2022-12-23T10:22:47.321Z,54.03
2022-12-23T10:25:37.394Z,59.63
2022-12-23T10:28:04.903Z,54.50
2022-12-23T10:31:23.347Z,52.27
2022-12-23T10:33:41.463Z,52.80
2022-12-23T10:36:28.411Z,52.03
2022-12-23T10:39:16.840Z,53.50
2022-12-23T10:42:00.384Z,48.07
2022-12-23T10:44:41.127Z,49.87
2022-12-23T10:47:35.438Z,59.80
2022-12-23T10:50:34.686Z,55.43
2022-12-23T10:53:05.283Z,50.33
2022-12-23T10:55:38.422Z,47.57
2022-12-23T10:58:14.735Z,49.43
2022-12-23T11:00:45.646Z,43.83
2022-12-23T11:03:20.888Z,50.60
2022-12-23T11:05:50.987Z,42.63
2022-12-23T11:08:18.410Z,47.37
2022-12-23T11:10:45.073Z,50.03
2022-12-23T11:13:24.294Z,52.27
2022-12-23T11:15:52.483Z,55.27
2022-12-23T11:18:20.635Z,57.40
2022-12-23T11:21:04.062Z,44.03
2022-12-23T11:23:36.666Z,42.30
2022-12-23T11:26:07.125Z,37.97
2022-12-23T11:28:37.705Z,47.60
2022-12-23T11:31:12.122Z,42.57
2022-12-23T11:33:45.787Z,38.83
2022-12-23T11:36:12.193Z,40.57
2022-12-23T11:38:52.959Z,37.57
2022-12-23T11:41:27.144Z,37.80
2022-12-23T11:44:05.361Z,38.73
2022-12-23T11:46:34.209Z,44.77
2022-12-23T11:49:20.821Z,40.10
2022-12-23T11:52:01.967Z,42.10
2022-12-23T11:54:29.322Z,40.10
2022-12-23T11:56:56.170Z,59.10
2022-12-23T11:59:38.536Z,65.63
2022-12-23T12:02:14.953Z,41.57
2022-12-23T12:04:42.466Z,44.80
2022-12-23T12:07:14.482Z,44.67
2022-12-23T12:09:43.496Z,48.43
2022-12-23T12:12:22.275Z,44.27
2022-12-23T12:14:52.382Z,47.70
2022-12-23T12:17:21.959Z,37.67
2022-12-23T12:20:05.016Z,41.20
2022-12-23T12:23:03.533Z,39.50
2022-12-23T12:25:39.876Z,39.43
2022-12-23T12:28:13.901Z,37.07
2022-12-23T12:31:17.256Z,29.40
2022-12-23T12:34:05.856Z,40.00
2022-12-23T12:36:46.068Z,36.43
2022-12-23T12:39:54.526Z,31.33
2022-12-23T12:42:30.230Z,32.97
2022-12-23T12:45:24.153Z,31.30
2022-12-23T12:48:18.684Z,34.60
2022-12-23T12:51:02.681Z,32.37
2022-12-23T12:53:31.961Z,32.50
2022-12-23T12:56:18.634Z,33.20
2022-12-23T12:58:45.199Z,33.23
2022-12-23T13:01:17.892Z,30.33
2022-12-23T13:04:19.758Z,28.93
2022-12-23T13:07:07.862Z,49.93
2022-12-23T13:09:50.405Z,36.57
2022-12-23T13:12:26.041Z,25.77
2022-12-23T13:15:04.571Z,26.87
2022-12-23T13:17:45.041Z,21.70
2022-12-23T13:20:28.423Z,23.20
2022-12-23T13:23:20.900Z,24.83
2022-12-23T13:26:01.198Z,23.73
2022-12-23T13:28:44.549Z,23.43
2022-12-23T13:31:21.838Z,30.80
2022-12-23T13:34:02.887Z,41.93
2022-12-23T13:37:03.109Z,40.83
2022-12-23T13:39:44.259Z,36.30
2022-12-23T13:42:24.318Z,37.90
2022-12-23T13:44:51.460Z,36.47
2022-12-23T13:47:36.172Z,35.27
2022-12-23T13:50:25.634Z,41.50
2022-12-23T13:53:09.905Z,43.80
2022-12-23T13:55:58.364Z,49.43
2022-12-23T13:58:27.148Z,44.60
2022-12-23T14:01:03.265Z,51.10
2022-12-23T14:03:33.915Z,53.87
2022-12-23T14:06:18.658Z,57.80
2022-12-23T14:08:46.211Z,49.70
2022-12-23T14:11:21.434Z,57.90
2022-12-23T14:13:51.206Z,50.90
2022-12-23T14:16:42.591Z,53.17
2022-12-23T14:19:36.679Z,44.80
2022-12-23T14:22:25.015Z,46.73
2022-12-23T14:25:16.458Z,46.07
2022-12-23T14:28:13.276Z,49.97
2022-12-23T14:30:45.694Z,40.97
2022-12-23T14:33:44.623Z,48.97
2022-12-23T14:36:25.951Z,48.43
2022-12-23T14:39:11.393Z,46.60
2022-12-23T14:41:48.003Z,47.10
2022-12-23T14:44:42.605Z,42.40
2022-12-23T14:47:35.456Z,44.50
2022-12-23T14:50:47.197Z,45.33
2022-12-23T14:53:29.523Z,49.87
2022-12-23T14:56:08.069Z,47.87
2022-12-23T14:58:50.303Z,48.53
2022-12-23T15:01:19.088Z,49.50
2022-12-23T15:03:57.530Z,47.83
2022-12-23T15:06:39.435Z,49.57
2022-12-23T15:09:07.789Z,50.03
2022-12-23T15:11:36.660Z,49.77
2022-12-23T15:14:10.330Z,56.57
2022-12-23T15:16:40.374Z,51.80
2022-12-23T15:19:27.365Z,50.07
2022-12-23T15:22:22.121Z,53.33
2022-12-23T15:24:52.004Z,51.13
2022-12-23T15:27:29.408Z,52.87
2022-12-23T15:29:57.227Z,56.83
2022-12-23T15:32:25.426Z,46.47
2022-12-23T15:34:56.304Z,49.50
2022-12-23T15:37:29.485Z,46.17
2022-12-23T15:40:06.130Z,46.63
2022-12-23T15:42:38.670Z,49.03
2022-12-23T15:45:29.539Z,49.97
2022-12-23T15:47:56.034Z,53.93
2022-12-23T15:50:22.840Z,54.20
2022-12-23T15:52:50.697Z,53.73
2022-12-23T15:55:25.479Z,51.77
2022-12-23T15:57:52.789Z,46.97
2022-12-23T16:00:31.398Z,52.33
2022-12-23T16:03:01.062Z,51.50
2022-12-23T16:05:32.716Z,44.27
2022-12-23T16:08:31.764Z,50.33
2022-12-23T16:11:07.324Z,52.50
2022-12-23T16:13:34.036Z,46.33
2022-12-23T16:16:20.457Z,50.63
2022-12-23T16:18:47.807Z,51.57
2022-12-23T16:21:15.256Z,47.50
2022-12-23T16:23:53.108Z,46.43
2022-12-23T16:26:20.941Z,54.07
2022-12-23T16:28:51.187Z,48.57
2022-12-23T16:31:20.163Z,50.27
2022-12-23T16:33:59.304Z,47.00
2022-12-23T16:36:28.775Z,50.70
2022-12-23T16:39:19.505Z,49.13
2022-12-23T16:41:45.969Z,48.03
2022-12-23T16:44:12.794Z,48.23
2022-12-23T16:46:44.614Z,53.07
2022-12-23T16:49:20.467Z,53.23
2022-12-23T16:51:47.338Z,46.87
2022-12-23T16:54:19.831Z,90.80
2022-12-23T16:56:46.944Z,62.57
2022-12-23T16:59:14.276Z,50.50
2022-12-23T17:01:46.023Z,54.57
2022-12-23T17:04:12.895Z,48.27
2022-12-23T17:06:40.828Z,48.53
2022-12-23T17:09:08.678Z,47.27
2022-12-23T17:11:41.447Z,49.70
2022-12-23T17:14:15.792Z,55.90
2022-12-23T17:16:43.088Z,49.70
2022-12-23T17:19:09.622Z,44.33
2022-12-23T17:21:37.734Z,43.73
2022-12-23T17:24:11.162Z,45.97
2022-12-23T17:26:37.625Z,51.20
2022-12-23T17:29:05.552Z,49.23
2022-12-23T17:31:33.409Z,51.90
2022-12-23T17:34:01.717Z,55.07
2022-12-23T17:36:28.401Z,49.70
2022-12-23T17:38:54.943Z,49.30
2022-12-23T17:41:32.498Z,52.53
2022-12-23T17:43:59.362Z,56.30
2022-12-23T17:46:26.728Z,54.87
2022-12-23T17:48:53.703Z,52.17
2022-12-23T17:51:27.414Z,53.30
2022-12-23T17:53:58.942Z,50.17
2022-12-23T17:56:28.480Z,57.27
2022-12-23T17:58:55.040Z,50.77
2022-12-23T18:01:31.006Z,48.43
2022-12-23T18:04:15.605Z,51.03
2022-12-23T18:06:43.176Z,49.30
2022-12-23T18:09:09.951Z,49.27
2022-12-23T18:11:41.841Z,49.03
2022-12-23T18:14:16.359Z,54.97
2022-12-23T18:16:42.997Z,55.00
2022-12-23T18:19:26.618Z,53.83
2022-12-23T18:21:53.111Z,55.17
2022-12-23T18:24:19.633Z,50.47
2022-12-23T18:26:51.535Z,49.57
2022-12-23T18:29:18.693Z,55.60
2022-12-23T18:31:52.597Z,55.53
2022-12-23T18:34:20.811Z,57.67
2022-12-23T18:36:48.540Z,52.60
2022-12-23T18:39:15.263Z,60.30
2022-12-23T18:41:41.950Z,58.60
2022-12-23T18:44:18.447Z,58.70
2022-12-23T18:46:45.145Z,59.00
2022-12-23T18:49:11.672Z,66.83
2022-12-23T18:51:38.229Z,62.30
2022-12-23T18:54:04.844Z,64.83
2022-12-23T18:56:31.391Z,64.87
2022-12-23T18:58:57.887Z,69.03
2022-12-23T19:01:24.659Z,65.37
2022-12-23T19:03:51.201Z,72.67
2022-12-23T19:06:17.857Z,67.47
2022-12-23T19:08:46.708Z,67.53
2022-12-23T19:11:20.511Z,66.43
2022-12-23T19:13:48.863Z,61.17
2022-12-23T19:16:18.575Z,64.00
2022-12-23T19:18:46.423Z,61.50
2022-12-23T19:21:14.291Z,61.10
2022-12-23T19:23:41.624Z,59.67
2022-12-23T19:26:12.978Z,66.70
2022-12-23T19:28:41.960Z,59.07
2022-12-23T19:31:13.776Z,63.07
2022-12-23T19:33:45.980Z,89.57
2022-12-23T19:36:23.205Z,67.77
2022-12-23T19:38:50.793Z,59.47
2022-12-23T19:41:18.877Z,66.20
2022-12-23T19:43:46.920Z,52.67
2022-12-23T19:46:15.056Z,62.47
2022-12-23T19:48:42.051Z,61.00
2022-12-23T19:51:11.741Z,64.30
2022-12-23T19:53:39.924Z,60.43
2022-12-23T19:56:53.626Z,53.83
2022-12-23T19:59:26.491Z,66.87
2022-12-23T20:01:53.194Z,59.77
2022-12-23T20:04:19.991Z,61.40
2022-12-23T20:06:46.538Z,58.47
2022-12-23T20:09:13.911Z,60.83
2022-12-23T20:11:43.573Z,60.30
2022-12-23T20:14:13.233Z,56.97
2022-12-23T20:16:41.099Z,51.93
2022-12-23T20:19:08.256Z,57.90
2022-12-23T20:21:37.414Z,54.23
2022-12-23T20:24:05.975Z,57.60
2022-12-23T20:26:33.056Z,52.60
2022-12-23T20:28:59.777Z,57.57
2022-12-23T20:31:31.975Z,61.60
2022-12-23T20:33:58.999Z,50.13
2022-12-23T20:36:29.070Z,54.73
2022-12-23T20:38:56.363Z,50.80
2022-12-23T20:41:25.680Z,48.93
2022-12-23T20:44:23.899Z,53.27
2022-12-23T20:46:39.496Z,51.47
2022-12-23T20:49:06.048Z,52.50
2022-12-23T20:51:32.603Z,48.50
2022-12-23T20:54:00.016Z,46.93
2022-12-23T20:56:27.812Z,46.17
2022-12-23T20:58:55.290Z,45.20
2022-12-23T21:01:33.830Z,48.83
2022-12-23T21:04:02.690Z,45.43
2022-12-23T21:06:31.089Z,46.57
2022-12-23T21:08:59.845Z,43.33
2022-12-23T21:11:32.407Z,44.03
2022-12-23T21:14:06.113Z,45.13
2022-12-23T21:16:36.115Z,46.40
2022-12-23T21:19:04.020Z,42.17
2022-12-23T21:21:33.015Z,44.87
2022-12-23T21:24:01.545Z,46.73
2022-12-23T21:26:30.012Z,45.90
2022-12-23T21:29:00.555Z,63.27
2022-12-23T21:31:28.924Z,46.57
2022-12-23T21:33:56.582Z,49.37
2022-12-23T21:36:25.765Z,49.87
2022-12-23T21:38:53.216Z,41.33
2022-12-23T21:41:22.680Z,48.77
2022-12-23T21:43:50.186Z,51.57
2022-12-23T21:46:21.382Z,48.10
2022-12-23T21:48:49.028Z,44.37
2022-12-23T21:51:17.932Z,43.03
2022-12-23T21:53:45.703Z,46.53
2022-12-23T21:56:14.970Z,41.80
2022-12-23T21:58:42.076Z,42.73
2022-12-23T22:01:14.646Z,51.77
2022-12-23T22:03:41.985Z,48.20
2022-12-23T22:06:11.716Z,42.73
2022-12-23T22:08:39.386Z,42.03
2022-12-23T22:11:12.083Z,45.37
2022-12-23T22:13:39.243Z,46.03
2022-12-23T22:16:13.798Z,47.07
2022-12-23T22:18:41.216Z,43.47
2022-12-23T22:21:10.220Z,40.87
2022-12-23T22:23:37.828Z,41.57
2022-12-23T22:26:05.526Z,39.97
2022-12-23T22:28:33.432Z,47.87
2022-12-23T22:31:16.867Z,45.87
2022-12-23T22:33:43.766Z,45.03
2022-12-23T22:36:12.066Z,45.20
2022-12-23T22:38:39.180Z,41.70
2022-12-23T22:41:06.245Z,46.90
2022-12-23T22:43:32.894Z,39.97
2022-12-23T22:46:01.449Z,45.53
2022-12-23T22:48:30.004Z,41.57
2022-12-23T22:51:15.114Z,38.17
2022-12-23T22:53:41.628Z,39.30
2022-12-23T22:56:08.320Z,36.20
2022-12-23T22:58:35.041Z,34.43
2022-12-23T23:01:01.851Z,39.77
2022-12-23T23:03:29.133Z,39.80
2022-12-23T23:06:01.423Z,32.53
2022-12-23T23:08:28.750Z,36.67
2022-12-23T23:10:57.554Z,31.23
2022-12-23T23:13:26.685Z,37.40
2022-12-23T23:15:53.220Z,34.03
2022-12-23T23:18:19.692Z,32.27
2022-12-23T23:20:46.556Z,35.40
2022-12-23T23:23:13.026Z,28.93
2022-12-23T23:25:39.686Z,30.00
2022-12-23T23:28:06.217Z,31.43
2022-12-23T23:30:32.772Z,29.80
2022-12-23T23:32:59.547Z,30.17
2022-12-23T23:35:26.418Z,31.90
2022-12-23T23:37:52.880Z,29.70
2022-12-23T23:40:19.394Z,27.17
2022-12-23T23:42:46.043Z,34.40
2022-12-23T23:45:12.526Z,30.73
2022-12-23T23:47:38.996Z,24.27
2022-12-23T23:50:06.430Z,31.43
2022-12-23T23:52:33.012Z,27.20
2022-12-23T23:54:59.783Z,30.13
2022-12-23T23:57:29.084Z,29.60
2022-12-23T23:59:55.654Z,34.30
